Time;durP1;ratioP1;P1;durP2;ratioP2;P2;SDS_P1;SDS_P2;PMS_P1;PMS_P2;Temp;Humidity;BMP_temperature;BMP_pressure;BME280_temperature;BME280_humidity;BME280_pressure;Samples;Min_cycle;Max_cycle;Signal;HPM_P1;HPM_P2
2023/05/13 00:02:57;;;;;;;;;;;19.80;56.30;;;;;;6296452;28;20328;-65
2023/05/13 00:05:58;;;;;;;;;;;19.80;56.30;;;;;;6270541;28;19925;-64
2023/05/13 00:08:58;;;;;;;;;;;19.80;56.30;;;;;;6296461;28;19912;-65
2023/05/13 00:11:59;;;;;;;;;;;19.80;56.30;;;;;;6296683;28;20007;-64
2023/05/13 00:14:59;;;;;;;;;;;19.90;56.40;;;;;;6296529;28;19909;-65
2023/05/13 00:18:00;;;;;;;;;;;19.80;56.30;;;;;;6296157;28;19916;-65
2023/05/13 00:21:01;;;;;;;;;;;19.80;56.30;;;;;;6296308;28;19994;-65
2023/05/13 00:24:01;;;;;;;;;;;19.90;56.40;;;;;;6296101;28;20436;-65
2023/05/13 00:27:02;;;;;;;;;;;19.80;56.30;;;;;;6278476;28;20125;-65
2023/05/13 00:30:04;;;;;;;;;;;19.90;56.40;;;;;;6296092;28;19908;-65
2023/05/13 00:33:06;;;;;;;;;;;19.80;56.30;;;;;;6296068;28;19908;-65
2023/05/13 00:36:08;;;;;;;;;;;19.80;56.30;;;;;;6295922;28;20293;-65
2023/05/13 00:39:10;;;;;;;;;;;19.80;56.30;;;;;;6296044;28;20400;-65
2023/05/13 00:42:12;;;;;;;;;;;19.80;56.30;;;;;;6278121;28;19991;-64
2023/05/13 00:45:13;;;;;;;;;;;19.80;56.30;;;;;;6277867;28;19916;-65
2023/05/13 00:48:13;;;;;;;;;;;19.90;56.40;;;;;;6295299;28;19962;-64
2023/05/13 00:51:14;;;;;;;;;;;19.90;56.40;;;;;;6278092;28;19959;-65
2023/05/13 00:54:14;;;;;;;;;;;19.80;56.30;;;;;;6295451;28;20007;-64
2023/05/13 00:57:15;;;;;;;;;;;19.80;56.30;;;;;;6295195;28;19912;-65
2023/05/13 01:00:16;;;;;;;;;;;19.90;56.40;;;;;;6294255;28;20343;-64
2023/05/13 01:03:34;;;;;;;;;;;19.80;56.30;;;;;;6295344;28;19912;-65
2023/05/13 01:06:43;;;;;;;;;;;19.80;56.30;;;;;;6295474;28;20432;-64
2023/05/13 01:09:46;;;;;;;;;;;19.80;56.30;;;;;;6295000;28;19915;-64
2023/05/13 01:12:52;;;;;;;;;;;19.90;56.40;;;;;;6277475;28;19915;-65
2023/05/13 01:16:03;;;;;;;;;;;19.80;56.30;;;;;;6295063;28;19909;-65
2023/05/13 01:19:09;;;;;;;;;;;19.90;56.40;;;;;;6295100;28;19914;-64
2023/05/13 01:22:10;;;;;;;;;;;19.80;56.30;;;;;;6293839;28;19932;-65
2023/05/13 01:25:11;;;;;;;;;;;19.90;56.40;;;;;;6294815;28;19978;-65
2023/05/13 01:28:11;;;;;;;;;;;19.80;56.30;;;;;;6294648;28;19938;-63
2023/05/13 01:31:13;;;;;;;;;;;19.80;56.30;;;;;;6276903;28;19909;-65
2023/05/13 01:34:14;;;;;;;;;;;19.80;56.30;;;;;;6294670;28;20600;-65
2023/05/13 01:37:15;;;;;;;;;;;19.90;56.40;;;;;;6294695;28;19941;-65
2023/05/13 01:40:16;;;;;;;;;;;19.90;56.40;;;;;;6294478;28;20356;-65
2023/05/13 01:43:17;;;;;;;;;;;19.90;56.40;;;;;;6276497;28;19908;-65
2023/05/13 01:46:17;;;;;;;;;;;19.80;56.30;;;;;;6294274;28;20313;-64
2023/05/13 01:49:18;;;;;;;;;;;19.90;56.40;;;;;;6276525;28;19912;-64
2023/05/13 01:52:19;;;;;;;;;;;19.80;56.30;;;;;;6294691;28;19919;-65
2023/05/13 01:55:20;;;;;;;;;;;19.90;56.40;;;;;;6294409;28;19990;-65
2023/05/13 01:58:20;;;;;;;;;;;19.90;56.40;;;;;;6293899;28;19913;-65
2023/05/13 02:01:21;;;;;;;;;;;19.80;56.30;;;;;;6294122;28;20007;-65
2023/05/13 02:04:21;;;;;;;;;;;19.90;56.40;;;;;;6268037;28;19913;-66
2023/05/13 02:07:22;;;;;;;;;;;19.80;56.30;;;;;;6269371;28;20352;-64
2023/05/13 02:10:22;;;;;;;;;;;19.90;56.40;;;;;;6287918;28;19999;-64
2023/05/13 02:13:23;;;;;;;;;;;19.90;56.40;;;;;;6293861;28;19909;-65
2023/05/13 02:16:24;;;;;;;;;;;19.80;56.30;;;;;;6275655;28;19957;-65
2023/05/13 02:19:24;;;;;;;;;;;19.90;56.40;;;;;;6293808;28;19909;-65
2023/05/13 02:22:25;;;;;;;;;;;19.90;56.40;;;;;;6293945;28;19934;-65
2023/05/13 02:25:26;;;;;;;;;;;19.90;56.40;;;;;;6293360;28;19960;-64
2023/05/13 02:28:26;;;;;;;;;;;19.90;56.40;;;;;;6275406;28;20258;-64
2023/05/13 02:31:28;;;;;;;;;;;19.90;56.40;;;;;;6293095;28;19962;-64
2023/05/13 02:34:28;;;;;;;;;;;19.90;56.40;;;;;;6293842;28;20026;-64
2023/05/13 02:37:29;;;;;;;;;;;19.90;56.40;;;;;;6293368;28;20459;-65
2023/05/13 02:40:29;;;;;;;;;;;19.90;56.40;;;;;;6293370;28;20377;-65
2023/05/13 02:43:31;;;;;;;;;;;19.90;56.40;;;;;;6293268;28;20002;-64
2023/05/13 02:46:31;;;;;;;;;;;19.90;56.40;;;;;;6293216;28;19920;-65
2023/05/13 02:49:32;;;;;;;;;;;19.90;56.40;;;;;;6275070;28;19915;-64
2023/05/13 02:52:35;;;;;;;;;;;19.90;56.40;;;;;;6293256;28;19909;-63
2023/05/13 02:55:36;;;;;;;;;;;19.80;56.30;;;;;;6293142;28;19916;-65
2023/05/13 02:58:37;;;;;;;;;;;19.90;56.40;;;;;;6293169;28;19943;-64
2023/05/13 03:01:37;;;;;;;;;;;19.80;56.40;;;;;;6292895;28;19913;-65
2023/05/13 03:04:40;;;;;;;;;;;19.90;56.40;;;;;;6293492;28;19913;-65
2023/05/13 03:07:40;;;;;;;;;;;19.80;56.30;;;;;;6293154;28;19908;-64
2023/05/13 03:10:41;;;;;;;;;;;19.90;56.40;;;;;;6292888;28;19909;-64
2023/05/13 03:13:41;;;;;;;;;;;19.80;56.30;;;;;;6292942;28;19971;-64
2023/05/13 03:16:43;;;;;;;;;;;19.80;56.30;;;;;;6275420;28;19913;-65
2023/05/13 03:19:44;;;;;;;;;;;19.90;56.40;;;;;;6293466;28;19944;-65
2023/05/13 03:22:44;;;;;;;;;;;19.90;56.40;;;;;;6297495;28;19954;-64
2023/05/13 03:25:45;;;;;;;;;;;19.90;56.40;;;;;;6298070;28;20011;-64
2023/05/13 03:28:45;;;;;;;;;;;19.90;56.40;;;;;;6297644;28;19915;-64
2023/05/13 03:31:46;;;;;;;;;;;19.90;56.40;;;;;;6297418;28;19944;-65
2023/05/13 03:34:46;;;;;;;;;;;19.80;56.30;;;;;;6297751;28;19908;-65
2023/05/13 03:37:47;;;;;;;;;;;19.90;56.50;;;;;;6297543;28;19909;-64
2023/05/13 03:40:48;;;;;;;;;;;19.90;56.40;;;;;;6297460;28;20006;-65
2023/05/13 03:43:48;;;;;;;;;;;19.90;56.40;;;;;;6297295;28;20007;-66
2023/05/13 03:46:49;;;;;;;;;;;19.90;56.40;;;;;;6297456;28;20420;-65
2023/05/13 03:49:49;;;;;;;;;;;19.90;56.40;;;;;;6297080;28;19913;-64
2023/05/13 03:52:50;;;;;;;;;;;19.90;56.50;;;;;;6279161;28;19909;-64
2023/05/13 03:55:50;;;;;;;;;;;19.90;56.50;;;;;;6297146;28;19962;-65
2023/05/13 03:58:51;;;;;;;;;;;19.90;56.40;;;;;;6297249;28;19912;-65
2023/05/13 04:01:51;;;;;;;;;;;19.80;56.30;;;;;;6296606;28;19952;-65
2023/05/13 04:04:52;;;;;;;;;;;19.90;56.40;;;;;;6296920;28;19947;-65
2023/05/13 04:07:53;;;;;;;;;;;19.90;57.10;;;;;;6296839;28;19920;-65
2023/05/13 04:10:55;;;;;;;;;;;19.90;56.40;;;;;;6296727;28;20537;-65
2023/05/13 04:13:56;;;;;;;;;;;19.90;56.40;;;;;;6296727;28;19908;-65
2023/05/13 04:16:56;;;;;;;;;;;19.90;56.50;;;;;;6296753;28;19913;-65
2023/05/13 04:19:57;;;;;;;;;;;19.90;56.50;;;;;;6296598;28;19960;-65
2023/05/13 04:22:58;;;;;;;;;;;19.90;56.50;;;;;;6302107;28;19914;-64
2023/05/13 04:25:58;;;;;;;;;;;19.90;56.50;;;;;;6315914;28;19913;-65
2023/05/13 04:28:59;;;;;;;;;;;19.90;56.50;;;;;;6296253;28;20415;-63
2023/05/13 04:31:59;;;;;;;;;;;19.90;56.50;;;;;;6295257;28;19909;-64
2023/05/13 04:35:00;;;;;;;;;;;19.90;56.40;;;;;;6278106;28;20369;-64
2023/05/13 04:38:01;;;;;;;;;;;19.90;56.50;;;;;;6296121;28;19999;-65
2023/05/13 04:41:01;;;;;;;;;;;19.90;56.50;;;;;;6296056;28;19940;-65
2023/05/13 04:44:02;;;;;;;;;;;19.90;56.50;;;;;;6295769;28;19962;-63
2023/05/13 04:47:02;;;;;;;;;;;19.90;56.50;;;;;;6295907;28;19920;-64
2023/05/13 04:50:03;;;;;;;;;;;19.90;56.50;;;;;;6295550;28;20004;-65
2023/05/13 04:53:04;;;;;;;;;;;19.90;56.50;;;;;;6295769;28;19931;-65
2023/05/13 04:56:04;;;;;;;;;;;19.90;56.50;;;;;;6295741;28;20366;-65
2023/05/13 04:59:05;;;;;;;;;;;19.90;56.50;;;;;;6277681;28;19915;-65
2023/05/13 05:02:06;;;;;;;;;;;19.90;56.40;;;;;;6295098;28;19963;-65
2023/05/13 05:05:06;;;;;;;;;;;19.90;56.40;;;;;;6295333;28;19948;-65
2023/05/13 05:08:07;;;;;;;;;;;19.90;56.50;;;;;;6295592;28;19909;-65
2023/05/13 05:11:08;;;;;;;;;;;19.90;57.10;;;;;;6294817;28;20575;-65
2023/05/13 05:14:09;;;;;;;;;;;19.90;56.50;;;;;;6294929;28;19920;-65
2023/05/13 05:17:10;;;;;;;;;;;19.90;56.50;;;;;;6294750;28;19908;-65
2023/05/13 05:20:10;;;;;;;;;;;19.90;56.50;;;;;;6276972;28;20003;-65
2023/05/13 05:23:11;;;;;;;;;;;19.90;56.50;;;;;;6294581;28;20271;-65
2023/05/13 05:26:11;;;;;;;;;;;19.90;56.40;;;;;;6294788;28;20557;-66
2023/05/13 05:29:12;;;;;;;;;;;19.90;56.50;;;;;;6294962;28;20007;-65
2023/05/13 05:32:13;;;;;;;;;;;19.90;56.40;;;;;;6294830;28;19912;-65
2023/05/13 05:35:15;;;;;;;;;;;19.90;56.50;;;;;;6276505;28;19909;-65
2023/05/13 05:38:16;;;;;;;;;;;19.90;56.40;;;;;;6294451;28;19912;-64
2023/05/13 05:41:16;;;;;;;;;;;19.90;56.50;;;;;;6294665;28;19916;-65
2023/05/13 05:44:17;;;;;;;;;;;19.90;56.50;;;;;;6293473;28;19915;-65
2023/05/13 05:47:18;;;;;;;;;;;19.90;56.50;;;;;;6294255;28;19920;-64
2023/05/13 05:50:18;;;;;;;;;;;19.90;56.50;;;;;;6294864;28;19909;-65
2023/05/13 05:53:19;;;;;;;;;;;19.90;56.40;;;;;;6294044;28;20365;-64
2023/05/13 05:56:20;;;;;;;;;;;19.90;56.40;;;;;;6294471;28;19912;-65
2023/05/13 05:59:22;;;;;;;;;;;19.90;56.50;;;;;;6276002;28;19951;-68
2023/05/13 06:02:22;;;;;;;;;;;19.90;56.50;;;;;;6294275;28;19935;-65
2023/05/13 06:05:24;;;;;;;;;;;19.90;56.40;;;;;;6293694;28;19952;-65
2023/05/13 06:08:28;;;;;;;;;;;19.90;56.50;;;;;;6294229;28;20340;-66
2023/05/13 06:11:29;;;;;;;;;;;19.90;56.50;;;;;;6294089;28;19912;-65
2023/05/13 06:14:30;;;;;;;;;;;19.90;56.40;;;;;;6293680;28;19946;-65
2023/05/13 06:17:30;;;;;;;;;;;19.90;56.40;;;;;;6293382;28;19943;-64
2023/05/13 06:20:31;;;;;;;;;;;19.90;56.50;;;;;;6294141;28;19908;-66
2023/05/13 06:23:31;;;;;;;;;;;19.90;56.50;;;;;;6293505;28;19909;-65
2023/05/13 06:26:32;;;;;;;;;;;19.90;56.50;;;;;;6293262;28;20361;-64
2023/05/13 06:29:33;;;;;;;;;;;19.90;56.50;;;;;;6293678;28;19977;-64
2023/05/13 06:32:33;;;;;;;;;;;19.90;56.50;;;;;;6293250;28;19908;-65
2023/05/13 06:35:34;;;;;;;;;;;19.90;56.40;;;;;;6293444;28;20006;-65
2023/05/13 06:38:34;;;;;;;;;;;19.90;56.40;;;;;;6293609;28;19991;-65
2023/05/13 06:41:35;;;;;;;;;;;19.90;56.50;;;;;;6275844;28;19996;-65
2023/05/13 06:44:35;;;;;;;;;;;19.90;56.40;;;;;;6283424;28;20312;-65
2023/05/13 06:47:36;;;;;;;;;;;19.90;56.50;;;;;;6295130;28;19928;-65
2023/05/13 06:50:36;;;;;;;;;;;19.90;56.40;;;;;;6270440;28;19955;-65
2023/05/13 06:53:37;;;;;;;;;;;19.90;56.40;;;;;;6272945;28;19970;-65
2023/05/13 06:56:38;;;;;;;;;;;19.90;56.40;;;;;;6291505;28;19909;-65
2023/05/13 06:59:38;;;;;;;;;;;19.90;56.40;;;;;;6305942;28;20101;-65
2023/05/13 07:02:39;;;;;;;;;;;19.90;56.40;;;;;;6295208;28;19913;-65
2023/05/13 07:05:39;;;;;;;;;;;19.90;56.40;;;;;;6295667;28;20445;-65
2023/05/13 07:08:40;;;;;;;;;;;19.90;56.40;;;;;;6295223;28;20006;-65
2023/05/13 07:11:41;;;;;;;;;;;19.90;56.30;;;;;;6292097;28;19908;-65
2023/05/13 07:14:44;;;;;;;;;;;19.90;56.20;;;;;;6291663;28;20246;-64
2023/05/13 07:17:44;;;;;;;;;;;19.90;56.10;;;;;;6277004;28;19990;-65
2023/05/13 07:20:45;;;;;;;;;;;19.90;56.00;;;;;;6279614;28;20327;-66
2023/05/13 07:23:45;;;;;;;;;;;19.90;55.90;;;;;;6294822;28;20280;-64
2023/05/13 07:26:46;;;;;;;;;;;19.90;55.90;;;;;;6282892;28;19970;-64
2023/05/13 07:29:47;;;;;;;;;;;19.90;55.60;;;;;;6291759;28;19977;-65
2023/05/13 07:32:48;;;;;;;;;;;19.90;55.70;;;;;;6279466;28;20062;-65
2023/05/13 07:35:49;;;;;;;;;;;19.90;55.90;;;;;;6291124;28;19916;-65
2023/05/13 07:38:50;;;;;;;;;;;20.00;55.70;;;;;;6291593;28;19908;-64
2023/05/13 07:41:51;;;;;;;;;;;20.00;55.20;;;;;;6300488;28;19908;-65
2023/05/13 07:44:51;;;;;;;;;;;20.00;54.60;;;;;;6305491;28;19919;-63
2023/05/13 07:47:53;;;;;;;;;;;20.00;53.40;;;;;;6291104;28;19967;-64
2023/05/13 07:50:54;;;;;;;;;;;20.10;52.50;;;;;;6291173;28;20289;-67
2023/05/13 07:53:55;;;;;;;;;;;20.10;52.00;;;;;;6289226;28;19940;-67
2023/05/13 07:56:56;;;;;;;;;;;20.10;51.90;;;;;;6276794;28;20302;-67
2023/05/13 07:59:57;;;;;;;;;;;20.20;54.10;;;;;;6289476;28;19916;-73
2023/05/13 08:02:57;;;;;;;;;;;20.30;54.00;;;;;;6294475;28;19969;-67
2023/05/13 08:05:58;;;;;;;;;;;20.30;54.30;;;;;;6282803;28;19912;-67
2023/05/13 08:08:58;;;;;;;;;;;20.20;54.30;;;;;;6294553;28;20022;-67
2023/05/13 08:11:59;;;;;;;;;;;20.20;54.40;;;;;;6300592;28;20036;-67
2023/05/13 08:15:00;;;;;;;;;;;20.20;54.60;;;;;;6307158;28;19919;-67
2023/05/13 08:18:00;;;;;;;;;;;20.20;54.70;;;;;;6297011;28;19915;-67
2023/05/13 08:21:01;;;;;;;;;;;20.20;54.90;;;;;;6303935;28;20270;-67
2023/05/13 08:24:02;;;;;;;;;;;20.20;55.00;;;;;;6295299;28;20011;-67
2023/05/13 08:27:02;;;;;;;;;;;20.20;55.00;;;;;;6279015;28;20529;-67
2023/05/13 08:30:04;;;;;;;;;;;20.20;55.00;;;;;;6320565;28;20338;-67
2023/05/13 08:33:04;;;;;;;;;;;20.20;55.10;;;;;;6319281;28;19931;-67
2023/05/13 08:36:05;;;;;;;;;;;20.20;55.10;;;;;;6305942;28;20365;-68
2023/05/13 08:39:06;;;;;;;;;;;20.20;55.10;;;;;;6294522;28;19908;-67
2023/05/13 08:42:07;;;;;;;;;;;20.20;55.10;;;;;;6297710;28;20004;-67
2023/05/13 08:45:09;;;;;;;;;;;20.20;55.20;;;;;;6320184;28;20330;-66
2023/05/13 08:48:10;;;;;;;;;;;20.20;55.10;;;;;;6319860;28;19927;-66
2023/05/13 08:51:11;;;;;;;;;;;20.20;55.20;;;;;;6300456;28;20421;-68
2023/05/13 08:54:12;;;;;;;;;;;20.20;55.20;;;;;;6265737;28;20417;-67
2023/05/13 08:57:12;;;;;;;;;;;20.20;55.90;;;;;;6290852;28;19965;-67
2023/05/13 09:00:13;;;;;;;;;;;20.20;55.20;;;;;;6276055;28;19909;-67
2023/05/13 09:03:14;;;;;;;;;;;20.20;55.30;;;;;;6315984;28;19915;-67
2023/05/13 09:06:14;;;;;;;;;;;20.20;55.30;;;;;;6306794;28;19916;-66
2023/05/13 09:09:15;;;;;;;;;;;20.20;56.00;;;;;;6282790;28;19963;-67
2023/05/13 09:12:34;;;;;;;;;;;20.20;55.40;;;;;;6282006;28;19930;-67
2023/05/13 09:15:35;;;;;;;;;;;20.20;55.40;;;;;;6251677;28;19909;-67
2023/05/13 09:18:36;;;;;;;;;;;20.20;55.40;;;;;;6266977;28;19915;-66
2023/05/13 09:21:37;;;;;;;;;;;20.20;55.40;;;;;;6286157;28;19912;-67
2023/05/13 09:24:38;;;;;;;;;;;20.20;55.50;;;;;;6308929;28;20395;-67
2023/05/13 09:27:41;;;;;;;;;;;20.20;55.50;;;;;;6267743;28;19959;-67
2023/05/13 09:30:41;;;;;;;;;;;20.20;55.60;;;;;;6292271;28;20031;-66
2023/05/13 09:33:51;;;;;;;;;;;20.20;55.70;;;;;;6293646;28;20151;-66
2023/05/13 09:36:55;;;;;;;;;;;20.10;55.60;;;;;;6293740;28;19978;-67
2023/05/13 09:39:56;;;;;;;;;;;20.10;55.60;;;;;;6309669;28;19915;-65
2023/05/13 09:42:59;;;;;;;;;;;20.20;55.70;;;;;;6297567;28;19909;-65
2023/05/13 09:46:02;;;;;;;;;;;20.10;55.70;;;;;;6262433;28;19924;-67
2023/05/13 09:49:02;;;;;;;;;;;20.10;55.70;;;;;;6268376;28;19909;-67
2023/05/13 09:52:08;;;;;;;;;;;20.10;55.80;;;;;;6268616;28;19963;-67
2023/05/13 09:55:09;;;;;;;;;;;20.10;55.80;;;;;;6250574;28;19912;-67
2023/05/13 09:58:10;;;;;;;;;;;20.10;55.80;;;;;;6244524;28;19920;-67
2023/05/13 10:01:11;;;;;;;;;;;20.10;55.90;;;;;;6267766;28;20356;-67
2023/05/13 10:04:12;;;;;;;;;;;20.10;55.80;;;;;;6250535;28;19909;-67
2023/05/13 10:07:13;;;;;;;;;;;20.10;55.90;;;;;;6244192;28;19916;-67
2023/05/13 10:10:14;;;;;;;;;;;20.10;55.90;;;;;;6277992;28;20293;-67
2023/05/13 10:13:15;;;;;;;;;;;20.10;55.90;;;;;;6262074;28;21793;-67
2023/05/13 10:16:17;;;;;;;;;;;20.10;56.00;;;;;;6266736;28;19909;-66
2023/05/13 10:19:18;;;;;;;;;;;20.10;56.00;;;;;;6263054;28;19909;-66
2023/05/13 10:22:25;;;;;;;;;;;20.00;55.90;;;;;;6265939;28;19913;-68
2023/05/13 10:25:26;;;;;;;;;;;20.00;55.90;;;;;;6267600;28;19963;-68
2023/05/13 10:28:28;;;;;;;;;;;20.00;56.00;;;;;;6262561;28;20255;-67
2023/05/13 10:31:29;;;;;;;;;;;20.10;56.00;;;;;;6248361;28;20386;-68
2023/05/13 10:34:31;;;;;;;;;;;20.00;56.00;;;;;;6267806;28;19917;-67
2023/05/13 10:37:31;;;;;;;;;;;20.10;56.10;;;;;;6268215;28;19916;-68
2023/05/13 10:40:50;;;;;;;;;;;20.00;56.00;;;;;;6249742;28;20037;-68
2023/05/13 10:43:57;;;;;;;;;;;20.00;56.00;;;;;;6268109;28;19909;-68
2023/05/13 10:46:58;;;;;;;;;;;20.00;56.00;;;;;;6284523;28;19928;-68
2023/05/13 10:50:04;;;;;;;;;;;20.00;56.00;;;;;;6292104;28;20365;-67
2023/05/13 10:53:11;;;;;;;;;;;20.00;56.10;;;;;;6270490;28;20321;-68
2023/05/13 10:56:12;;;;;;;;;;;20.00;56.00;;;;;;6282060;28;19908;-68
2023/05/13 10:59:16;;;;;;;;;;;20.00;56.10;;;;;;6267606;28;20078;-69
2023/05/13 11:02:20;;;;;;;;;;;20.00;56.00;;;;;;6285381;28;20281;-67
2023/05/13 11:05:20;;;;;;;;;;;20.00;56.10;;;;;;6274068;28;19917;-68
2023/05/13 11:08:37;;;;;;;;;;;20.00;56.10;;;;;;6274513;28;19909;-68
2023/05/13 11:11:37;;;;;;;;;;;20.00;56.10;;;;;;6291621;28;19936;-66
2023/05/13 11:14:41;;;;;;;;;;;20.00;56.00;;;;;;6291990;28;19917;-68
2023/05/13 11:17:44;;;;;;;;;;;20.00;56.10;;;;;;6286897;28;19909;-68
2023/05/13 11:20:46;;;;;;;;;;;20.00;56.10;;;;;;6281273;28;19950;-68
2023/05/13 11:23:57;;;;;;;;;;;20.00;56.10;;;;;;6299160;28;20332;-66
2023/05/13 11:27:10;;;;;;;;;;;20.00;56.10;;;;;;6286120;28;19964;-68
2023/05/13 11:30:21;;;;;;;;;;;20.00;56.10;;;;;;6292227;28;20054;-68
2023/05/13 11:33:22;;;;;;;;;;;20.00;56.00;;;;;;6249831;28;19996;-68
2023/05/13 11:36:28;;;;;;;;;;;20.00;56.10;;;;;;6263391;28;19908;-68
2023/05/13 11:39:28;;;;;;;;;;;20.00;56.10;;;;;;6292271;28;19935;-68
2023/05/13 11:42:29;;;;;;;;;;;20.00;56.10;;;;;;6269080;28;19976;-68
2023/05/13 11:45:30;;;;;;;;;;;20.00;56.10;;;;;;6270741;28;20063;-69
2023/05/13 11:48:32;;;;;;;;;;;20.00;56.10;;;;;;6297023;28;20006;-68
2023/05/13 11:51:33;;;;;;;;;;;20.00;56.20;;;;;;6303184;28;19918;-68
2023/05/13 11:54:40;;;;;;;;;;;20.00;56.20;;;;;;6320571;28;20369;-68
2023/05/13 11:57:41;;;;;;;;;;;20.00;56.20;;;;;;6279431;28;19909;-68
2023/05/13 12:00:42;;;;;;;;;;;20.00;56.20;;;;;;6316945;28;19915;-68
2023/05/13 12:03:43;;;;;;;;;;;20.00;56.20;;;;;;6295598;28;19913;-66
2023/05/13 12:06:47;;;;;;;;;;;20.00;56.30;;;;;;6295401;28;19917;-67
2023/05/13 12:09:48;;;;;;;;;;;20.10;56.30;;;;;;6296109;28;20334;-66
2023/05/13 12:12:49;;;;;;;;;;;20.10;56.20;;;;;;6295052;28;19916;-67
2023/05/13 12:15:50;;;;;;;;;;;20.10;56.00;;;;;;6295729;28;20422;-66
2023/05/13 12:18:55;;;;;;;;;;;20.10;55.90;;;;;;6312866;28;19908;-66
2023/05/13 12:21:58;;;;;;;;;;;20.20;55.80;;;;;;6275573;28;20338;-67
2023/05/13 12:25:00;;;;;;;;;;;20.20;55.70;;;;;;6295537;28;19917;-68
2023/05/13 12:28:08;;;;;;;;;;;20.30;55.60;;;;;;6283502;28;19908;-69
2023/05/13 12:31:14;;;;;;;;;;;20.30;55.60;;;;;;6296033;28;20581;-68
2023/05/13 12:34:28;;;;;;;;;;;20.30;55.60;;;;;;6296167;28;19990;-68
2023/05/13 12:37:29;;;;;;;;;;;20.30;55.60;;;;;;6296713;28;19908;-68
2023/05/13 12:40:30;;;;;;;;;;;20.20;55.60;;;;;;6273281;28;19969;-70
2023/05/13 12:43:32;;;;;;;;;;;20.20;55.60;;;;;;6269899;28;19959;-68
2023/05/13 12:46:33;;;;;;;;;;;20.20;55.60;;;;;;6271044;28;19943;-69
2023/05/13 12:49:34;;;;;;;;;;;20.20;55.60;;;;;;6277144;28;20050;-68
2023/05/13 12:52:35;;;;;;;;;;;20.20;55.60;;;;;;6265560;28;19912;-69
2023/05/13 12:55:38;;;;;;;;;;;20.20;55.60;;;;;;6296001;28;19909;-70
2023/05/13 12:58:39;;;;;;;;;;;20.20;55.60;;;;;;6295842;28;20437;-69
2023/05/13 13:01:40;;;;;;;;;;;20.20;55.60;;;;;;6294955;28;19947;-68
2023/05/13 13:04:41;;;;;;;;;;;20.30;55.70;;;;;;6294862;28;19915;-69
2023/05/13 13:07:41;;;;;;;;;;;20.30;55.70;;;;;;6295428;28;19935;-68
2023/05/13 13:10:42;;;;;;;;;;;20.30;55.70;;;;;;6294697;28;19986;-69
2023/05/13 13:13:43;;;;;;;;;;;20.30;56.40;;;;;;6308153;28;19908;-69
2023/05/13 13:16:44;;;;;;;;;;;20.30;55.70;;;;;;6302433;28;19908;-68
2023/05/13 13:19:44;;;;;;;;;;;20.30;55.70;;;;;;6291989;28;19923;-69
2023/05/13 13:22:45;;;;;;;;;;;20.20;55.60;;;;;;6294480;28;19991;-69
2023/05/13 13:25:45;;;;;;;;;;;20.30;55.70;;;;;;6294647;28;19961;-69
2023/05/13 13:28:46;;;;;;;;;;;20.20;55.60;;;;;;6294860;28;19909;-69
2023/05/13 13:31:47;;;;;;;;;;;20.30;55.70;;;;;;6294435;28;19908;-69
2023/05/13 13:34:47;;;;;;;;;;;20.30;55.70;;;;;;6294717;28;19909;-69
2023/05/13 13:37:48;;;;;;;;;;;20.30;55.70;;;;;;6279219;28;19908;-69
2023/05/13 13:40:48;;;;;;;;;;;20.30;55.70;;;;;;6319466;28;19963;-68
2023/05/13 13:43:49;;;;;;;;;;;20.30;55.70;;;;;;6290749;28;19919;-69
2023/05/13 13:46:49;;;;;;;;;;;20.30;55.70;;;;;;6294092;28;20040;-69
2023/05/13 13:49:50;;;;;;;;;;;20.30;55.60;;;;;;6293936;28;20010;-68
2023/05/13 13:52:51;;;;;;;;;;;20.30;55.60;;;;;;6274763;28;19963;-69
2023/05/13 13:55:51;;;;;;;;;;;20.30;55.70;;;;;;6319170;28;19908;-69
2023/05/13 13:58:52;;;;;;;;;;;20.30;55.60;;;;;;6310678;28;19915;-69
2023/05/13 14:01:52;;;;;;;;;;;20.30;55.60;;;;;;6304420;28;19919;-69
2023/05/13 14:04:53;;;;;;;;;;;20.30;55.60;;;;;;6301067;28;19919;-69
2023/05/13 14:07:54;;;;;;;;;;;20.30;55.60;;;;;;6275972;28;19908;-68
2023/05/13 14:10:56;;;;;;;;;;;20.30;55.60;;;;;;6269757;28;20365;-69
2023/05/13 14:13:57;;;;;;;;;;;20.30;55.70;;;;;;6276581;28;20599;-69
2023/05/13 14:16:57;;;;;;;;;;;20.30;55.60;;;;;;6300860;28;19911;-68
2023/05/13 14:19:58;;;;;;;;;;;20.30;55.70;;;;;;6318457;28;19931;-69
2023/05/13 14:22:59;;;;;;;;;;;20.30;55.60;;;;;;6318211;28;20019;-67
2023/05/13 14:25:59;;;;;;;;;;;20.30;55.60;;;;;;6299523;28;20396;-68
2023/05/13 14:29:00;;;;;;;;;;;20.30;55.70;;;;;;6294698;28;19909;-68
2023/05/13 14:32:02;;;;;;;;;;;20.30;55.70;;;;;;6292290;28;19915;-68
2023/05/13 14:35:03;;;;;;;;;;;20.30;55.60;;;;;;6274926;28;19908;-68
2023/05/13 14:38:03;;;;;;;;;;;20.30;55.60;;;;;;6284423;28;20508;-68
2023/05/13 14:41:04;;;;;;;;;;;20.30;55.60;;;;;;6292151;28;20389;-67
2023/05/13 14:44:04;;;;;;;;;;;20.30;55.60;;;;;;6274004;28;19963;-67
2023/05/13 14:47:05;;;;;;;;;;;20.30;55.60;;;;;;6292113;28;19951;-67
2023/05/13 14:50:06;;;;;;;;;;;20.30;55.60;;;;;;6303598;28;20380;-68
2023/05/13 14:53:07;;;;;;;;;;;20.30;55.60;;;;;;6293010;28;20290;-71
2023/05/13 14:56:08;;;;;;;;;;;20.30;55.60;;;;;;6291080;28;19916;-67
2023/05/13 14:59:08;;;;;;;;;;;20.30;55.60;;;;;;6300538;28;19908;-68
2023/05/13 15:02:09;;;;;;;;;;;20.30;55.60;;;;;;6279153;28;20391;-68
2023/05/13 15:05:10;;;;;;;;;;;20.30;55.60;;;;;;6302170;28;19958;-67
2023/05/13 15:08:10;;;;;;;;;;;20.30;55.60;;;;;;6296828;28;19916;-68
2023/05/13 15:11:11;;;;;;;;;;;20.30;55.60;;;;;;6284025;28;19919;-67
2023/05/13 15:14:11;;;;;;;;;;;20.30;55.60;;;;;;6292058;28;19913;-67
2023/05/13 15:17:12;;;;;;;;;;;20.30;55.60;;;;;;6295983;28;19955;-66
2023/05/13 15:20:13;;;;;;;;;;;20.40;55.70;;;;;;6297597;28;20014;-68
2023/05/13 15:23:13;;;;;;;;;;;20.30;55.60;;;;;;6280039;28;19913;-67
2023/05/13 15:26:14;;;;;;;;;;;20.30;55.60;;;;;;6280991;28;20314;-67
2023/05/13 15:29:15;;;;;;;;;;;20.30;55.60;;;;;;6280093;28;19936;-68
2023/05/13 15:32:16;;;;;;;;;;;20.30;55.60;;;;;;6297026;28;19931;-68
2023/05/13 15:35:16;;;;;;;;;;;20.40;55.70;;;;;;6277464;28;20379;-68
2023/05/13 15:38:17;;;;;;;;;;;20.30;55.60;;;;;;6279199;28;19908;-68
2023/05/13 15:41:18;;;;;;;;;;;20.40;55.70;;;;;;6296877;28;19909;-68
2023/05/13 15:44:20;;;;;;;;;;;20.30;55.60;;;;;;6279359;28;19936;-68
2023/05/13 15:47:21;;;;;;;;;;;20.30;55.60;;;;;;6296904;28;20015;-68
2023/05/13 15:50:21;;;;;;;;;;;20.30;55.60;;;;;;6296859;28;19908;-68
2023/05/13 15:53:22;;;;;;;;;;;20.40;55.70;;;;;;6272588;28;19996;-68
2023/05/13 15:56:24;;;;;;;;;;;20.30;55.60;;;;;;6278952;28;20046;-68
2023/05/13 15:59:25;;;;;;;;;;;20.40;55.70;;;;;;6291361;28;20438;-69
2023/05/13 16:02:27;;;;;;;;;;;20.40;55.70;;;;;;6283559;28;19908;-68
2023/05/13 16:05:28;;;;;;;;;;;20.30;55.60;;;;;;6275339;28;19962;-68
2023/05/13 16:08:29;;;;;;;;;;;20.30;55.60;;;;;;6296348;28;20328;-68
2023/05/13 16:11:30;;;;;;;;;;;20.40;55.80;;;;;;6274865;28;19935;-68
2023/05/13 16:14:30;;;;;;;;;;;20.30;55.60;;;;;;6296669;28;20369;-68
2023/05/13 16:17:31;;;;;;;;;;;20.40;55.70;;;;;;6271440;28;19909;-68
2023/05/13 16:20:32;;;;;;;;;;;20.30;55.70;;;;;;6296567;28;19939;-69
2023/05/13 16:23:33;;;;;;;;;;;20.30;55.70;;;;;;6295949;28;19909;-68
2023/05/13 16:26:33;;;;;;;;;;;20.30;55.70;;;;;;6296232;28;19959;-67
2023/05/13 16:29:34;;;;;;;;;;;20.40;55.70;;;;;;6295415;28;19915;-68
2023/05/13 16:32:35;;;;;;;;;;;20.40;55.70;;;;;;6295469;28;20362;-68
2023/05/13 16:35:36;;;;;;;;;;;20.40;55.80;;;;;;6274954;28;19909;-69
2023/05/13 16:38:38;;;;;;;;;;;20.30;55.60;;;;;;6319150;28;19934;-69
2023/05/13 16:41:39;;;;;;;;;;;20.40;55.80;;;;;;6296195;28;19966;-68
2023/05/13 16:44:39;;;;;;;;;;;20.40;55.80;;;;;;6296188;28;20347;-68
2023/05/13 16:47:40;;;;;;;;;;;20.30;55.60;;;;;;6277611;28;20274;-69
2023/05/13 16:50:41;;;;;;;;;;;20.40;55.80;;;;;;6278011;28;20002;-68
2023/05/13 16:53:41;;;;;;;;;;;20.30;55.60;;;;;;6316846;28;19909;-68
2023/05/13 16:56:42;;;;;;;;;;;20.40;55.70;;;;;;6320509;28;19999;-67
2023/05/13 16:59:42;;;;;;;;;;;20.40;55.70;;;;;;6300614;28;19919;-68
2023/05/13 17:02:43;;;;;;;;;;;20.30;55.70;;;;;;6292909;28;19912;-67
2023/05/13 17:05:43;;;;;;;;;;;20.30;55.70;;;;;;6295880;28;19913;-67
2023/05/13 17:08:44;;;;;;;;;;;20.30;55.70;;;;;;6277696;28;19908;-67
2023/05/13 17:11:45;;;;;;;;;;;20.30;55.70;;;;;;6283271;28;19975;-69
2023/05/13 17:14:45;;;;;;;;;;;20.30;55.80;;;;;;6320445;28;19915;-67
2023/05/13 17:17:46;;;;;;;;;;;20.30;55.80;;;;;;6293951;28;19909;-67
2023/05/13 17:20:46;;;;;;;;;;;20.30;55.90;;;;;;6295186;28;20004;-67
2023/05/13 17:23:47;;;;;;;;;;;20.30;55.90;;;;;;6294638;28;20534;-68
2023/05/13 17:26:48;;;;;;;;;;;20.30;55.90;;;;;;6295227;28;20020;-68
2023/05/13 17:29:49;;;;;;;;;;;20.30;55.90;;;;;;6295034;28;20046;-67
2023/05/13 17:32:49;;;;;;;;;;;20.30;56.00;;;;;;6294343;28;19912;-67
2023/05/13 17:35:51;;;;;;;;;;;20.30;56.00;;;;;;6294842;28;20011;-67